Time;durP1;ratioP1;P1;durP2;ratioP2;P2;SDS_P1;SDS_P2;PMS_P1;PMS_P2;Temp;Humidity;BMP_temperature;BMP_pressure;BME280_temperature;BME280_humidity;BME280_pressure;Samples;Min_cycle;Max_cycle;Signal;HPM_P1;HPM_P2
2022/09/10 00:00:58;;;;;;;3.47;1.75;;;17.80;94.60;;;;;;5038498;28;20107;-78
2022/09/10 00:03:24;;;;;;;4.95;1.80;;;17.80;94.60;;;;;;5039406;28;20498;-78
2022/09/10 00:05:50;;;;;;;4.20;1.70;;;17.80;94.70;;;;;;5017930;28;20039;-78
2022/09/10 00:08:17;;;;;;;3.67;2.00;;;17.80;94.80;;;;;;5029423;28;20024;-79
2022/09/10 00:10:46;;;;;;;3.38;1.92;;;17.80;94.90;;;;;;5031909;28;20039;-79
2022/09/10 00:13:14;;;;;;;5.75;1.52;;;17.80;95.00;;;;;;5036369;28;20047;-78
2022/09/10 00:15:49;;;;;;;3.25;1.73;;;17.90;95.10;;;;;;5049571;28;20559;-78
2022/09/10 00:18:16;;;;;;;4.53;2.00;;;17.80;95.10;;;;;;5035308;28;20020;-78
2022/09/10 00:20:46;;;;;;;5.00;1.80;;;17.90;95.50;;;;;;5014814;28;20059;-79
2022/09/10 00:23:14;;;;;;;2.40;1.60;;;17.90;95.10;;;;;;5038813;28;20051;-78
2022/09/10 00:25:41;;;;;;;4.72;2.10;;;17.90;95.10;;;;;;5043245;28;20021;-78
2022/09/10 00:28:07;;;;;;;4.32;2.08;;;17.90;95.10;;;;;;5057226;28;20375;-78
2022/09/10 00:30:38;;;;;;;4.40;1.77;;;17.90;95.00;;;;;;5036631;28;20024;-78
2022/09/10 00:33:04;;;;;;;3.00;1.83;;;17.90;94.90;;;;;;5050021;28;20415;-78
2022/09/10 00:35:32;;;;;;;3.40;1.90;;;17.90;94.90;;;;;;5039909;28;20033;-78
2022/09/10 00:37:58;;;;;;;5.35;1.98;;;17.90;94.90;;;;;;5021144;28;20116;-78
2022/09/10 00:40:24;;;;;;;5.63;2.20;;;17.90;94.90;;;;;;5028883;28;20024;-78
2022/09/10 00:42:50;;;;;;;2.95;1.77;;;17.90;94.90;;;;;;5016501;28;20029;-79
2022/09/10 00:45:22;;;;;;;5.05;2.00;;;17.90;95.00;;;;;;5043743;28;20032;-78
2022/09/10 00:47:50;;;;;;;3.43;2.10;;;17.90;94.80;;;;;;5041117;28;20245;-78
2022/09/10 00:50:24;;;;;;;7.32;2.30;;;17.90;95.00;;;;;;5055999;28;20147;-78
2022/09/10 00:52:53;;;;;;;6.45;2.22;;;17.90;95.00;;;;;;5032807;28;20168;-78
2022/09/10 00:55:20;;;;;;;5.30;2.10;;;17.90;95.10;;;;;;5031912;28;20096;-79
2022/09/10 00:57:49;;;;;;;4.03;2.00;;;17.90;95.10;;;;;;5048738;28;20122;-78
2022/09/10 01:00:15;;;;;;;3.10;2.00;;;17.90;95.10;;;;;;5054934;28;20095;-78
2022/09/10 01:02:41;;;;;;;7.90;2.25;;;17.90;95.20;;;;;;5037083;28;20658;-79
2022/09/10 01:05:08;;;;;;;3.42;2.30;;;17.90;95.30;;;;;;5041748;28;20025;-78
2022/09/10 01:07:35;;;;;;;4.05;2.00;;;17.90;95.40;;;;;;5030677;28;21159;-78
2022/09/10 01:10:07;;;;;;;5.67;2.10;;;17.90;95.50;;;;;;5049902;28;20317;-78
2022/09/10 01:12:56;;;;;;;5.60;1.95;;;17.90;95.40;;;;;;5035449;28;20149;-78
2022/09/10 01:15:34;;;;;;;3.25;2.10;;;18.00;95.20;;;;;;5035605;28;20044;-78
2022/09/10 01:18:02;;;;;;;4.43;1.95;;;18.00;95.40;;;;;;5030445;28;20675;-77
2022/09/10 01:20:44;;;;;;;4.13;2.10;;;18.00;95.50;;;;;;5040234;28;20020;-77
2022/09/10 01:23:31;;;;;;;4.27;1.90;;;18.00;95.30;;;;;;5033647;28;20036;-78
2022/09/10 01:25:56;;;;;;;4.22;1.75;;;18.00;95.20;;;;;;5011910;28;20504;-77
2022/09/10 01:29:01;;;;;;;4.13;1.85;;;18.10;95.50;;;;;;5050318;28;20142;-78
2022/09/10 01:31:36;;;;;;;4.60;1.87;;;18.10;95.10;;;;;;5053512;28;20037;-78
2022/09/10 01:34:08;;;;;;;4.85;2.20;;;18.10;95.30;;;;;;5038013;28;20597;-78
2022/09/10 01:36:37;;;;;;;4.03;2.20;;;18.10;95.50;;;;;;5047589;28;20025;-77
2022/09/10 01:39:03;;;;;;;3.70;2.40;;;18.10;95.50;;;;;;5037588;28;20029;-79
2022/09/10 01:41:29;;;;;;;4.55;2.17;;;18.10;95.60;;;;;;5031760;28;20429;-78
2022/09/10 01:43:55;;;;;;;4.17;2.00;;;18.10;95.60;;;;;;5048838;28;20060;-77
2022/09/10 01:46:51;;;;;;;7.20;2.20;;;18.10;95.70;;;;;;5034719;28;20107;-78
2022/09/10 01:49:40;;;;;;;4.60;2.03;;;18.10;95.50;;;;;;5049499;28;20025;-78
2022/09/10 01:52:37;;;;;;;3.93;1.90;;;18.10;95.50;;;;;;5017629;28;20051;-79
2022/09/10 01:55:26;;;;;;;4.60;2.33;;;18.20;95.50;;;;;;5016309;28;20024;-78
2022/09/10 01:58:07;;;;;;;5.18;2.33;;;18.20;95.30;;;;;;5035869;28;20459;-78
2022/09/10 02:00:37;;;;;;;5.22;2.60;;;18.20;95.60;;;;;;5010413;28;20367;-78
2022/09/10 02:03:14;;;;;;;5.68;2.75;;;18.20;95.60;;;;;;5011559;28;20033;-78
2022/09/10 02:05:42;;;;;;;4.53;2.03;;;18.20;95.50;;;;;;5043860;28;20037;-78
2022/09/10 02:08:19;;;;;;;4.30;2.40;;;18.20;95.70;;;;;;5040652;28;20056;-78
2022/09/10 02:10:54;;;;;;;4.65;2.53;;;18.20;95.50;;;;;;5003744;28;20439;-78
2022/09/10 02:13:22;;;;;;;4.88;2.50;;;18.20;95.50;;;;;;5023128;28;20028;-78
2022/09/10 02:15:50;;;;;;;4.50;2.65;;;18.20;95.70;;;;;;5033510;28;20028;-78
2022/09/10 02:18:16;;;;;;;4.47;2.50;;;18.20;95.70;;;;;;5010876;28;20329;-78
2022/09/10 02:20:41;;;;;;;4.40;2.58;;;18.20;95.70;;;;;;5057014;28;20332;-79
2022/09/10 02:23:11;;;;;;;4.65;2.72;;;18.20;95.70;;;;;;5022501;28;20696;-78
2022/09/10 02:25:36;;;;;;;5.27;2.53;;;18.30;95.70;;;;;;5001776;28;20115;-78
2022/09/10 02:28:04;;;;;;;4.03;2.63;;;18.20;95.70;;;;;;5043943;28;20119;-78
2022/09/10 02:30:30;;;;;;;4.28;2.45;;;18.20;95.70;;;;;;5028305;28;20032;-78
2022/09/10 02:32:55;;;;;;;5.00;2.73;;;18.30;95.70;;;;;;5051375;28;20397;-77
2022/09/10 02:35:21;;;;;;;5.45;3.00;;;18.30;95.70;;;;;;5020937;28;20319;-78
2022/09/10 02:37:49;;;;;;;3.90;2.67;;;18.20;95.60;;;;;;5040075;28;20020;-78
2022/09/10 02:40:17;;;;;;;7.63;3.20;;;18.30;95.70;;;;;;5016355;28;20284;-78
2022/09/10 02:42:45;;;;;;;5.72;2.97;;;18.30;95.70;;;;;;5042596;28;20480;-78
2022/09/10 02:45:14;;;;;;;5.45;2.92;;;18.30;95.90;;;;;;5042139;28;20029;-78
2022/09/10 02:47:40;;;;;;;6.63;2.67;;;18.30;95.80;;;;;;5048006;28;20054;-78
2022/09/10 02:50:07;;;;;;;5.53;3.08;;;18.20;95.70;;;;;;5043609;28;20040;-79
2022/09/10 02:52:33;;;;;;;5.03;2.80;;;18.30;95.80;;;;;;5046406;28;20029;-77
2022/09/10 02:55:00;;;;;;;5.25;2.95;;;18.30;95.80;;;;;;5016892;28;20055;-78
2022/09/10 02:57:26;;;;;;;5.82;2.97;;;18.30;95.80;;;;;;5029870;28;20103;-78
2022/09/10 02:59:55;;;;;;;5.73;2.90;;;18.30;95.90;;;;;;5056126;28;20519;-78
2022/09/10 03:02:21;;;;;;;5.97;3.35;;;18.30;95.80;;;;;;5011244;28;20681;-77
2022/09/10 03:04:47;;;;;;;5.20;3.03;;;18.30;95.80;;;;;;5056923;28;20040;-78
2022/09/10 03:07:18;;;;;;;4.37;2.70;;;18.30;95.80;;;;;;5024614;28;20396;-78
2022/09/10 03:09:48;;;;;;;5.10;2.88;;;18.30;95.80;;;;;;5020932;28;20094;-77
2022/09/10 03:12:15;;;;;;;6.38;3.22;;;18.30;95.90;;;;;;5013647;28;20050;-78
2022/09/10 03:14:42;;;;;;;7.20;3.53;;;18.40;95.90;;;;;;5055754;28;20097;-78
2022/09/10 03:17:08;;;;;;;6.25;3.10;;;18.30;95.80;;;;;;5012424;28;20115;-78
2022/09/10 03:19:34;;;;;;;5.40;2.87;;;18.40;95.90;;;;;;5044622;28;20623;-78
2022/09/10 03:22:00;;;;;;;4.32;2.70;;;18.40;95.90;;;;;;5042033;28;20116;-78
2022/09/10 03:24:25;;;;;;;6.20;3.13;;;18.40;95.90;;;;;;5046993;28;20312;-78
2022/09/10 03:26:51;;;;;;;5.73;3.13;;;18.40;95.90;;;;;;5001495;28;20031;-78
2022/09/10 03:29:17;;;;;;;6.40;3.30;;;18.40;95.90;;;;;;5038229;28;20574;-78
2022/09/10 03:31:45;;;;;;;6.80;3.83;;;18.40;95.90;;;;;;5058205;28;20469;-77
2022/09/10 03:34:11;;;;;;;6.57;3.80;;;18.40;95.90;;;;;;5031765;28;20242;-77
2022/09/10 03:36:37;;;;;;;6.93;3.90;;;18.40;95.90;;;;;;5027417;28;20108;-77
2022/09/10 03:39:03;;;;;;;7.27;3.60;;;18.40;95.90;;;;;;5053336;28;20524;-77
2022/09/10 03:41:29;;;;;;;7.55;3.67;;;18.40;95.90;;;;;;5012991;28;20649;-77
2022/09/10 03:43:56;;;;;;;6.32;3.70;;;18.40;95.90;;;;;;5036311;28;20024;-78
2022/09/10 03:46:22;;;;;;;6.63;3.90;;;18.40;95.90;;;;;;5046285;28;20119;-77
2022/09/10 03:48:47;;;;;;;6.20;4.10;;;18.40;95.80;;;;;;5055350;28;20112;-77
2022/09/10 03:51:14;;;;;;;7.05;4.10;;;18.40;95.90;;;;;;5049588;28;20235;-78
2022/09/10 03:53:42;;;;;;;6.25;4.40;;;18.40;95.80;;;;;;5060062;28;20047;-78
2022/09/10 03:56:08;;;;;;;6.60;4.17;;;18.40;95.90;;;;;;5031048;28;20227;-78
2022/09/10 03:58:34;;;;;;;6.68;4.30;;;18.40;95.90;;;;;;5041838;28;20321;-78
2022/09/10 04:01:01;;;;;;;7.00;4.55;;;18.40;95.80;;;;;;5039818;28;20280;-79
2022/09/10 04:03:27;;;;;;;8.55;4.78;;;18.40;95.90;;;;;;5037113;28;20040;-78
2022/09/10 04:05:52;;;;;;;7.63;4.72;;;18.40;95.90;;;;;;5040977;28;20039;-77
2022/09/10 04:08:19;;;;;;;7.13;4.50;;;18.40;95.90;;;;;;5042458;28;21022;-78
2022/09/10 04:10:46;;;;;;;10.77;5.65;;;18.40;96.00;;;;;;5043882;28;20493;-78
2022/09/10 04:13:12;;;;;;;8.80;5.10;;;18.40;95.90;;;;;;5028070;28;20127;-78
2022/09/10 04:15:38;;;;;;;9.50;5.10;;;18.40;96.00;;;;;;5027006;28;20497;-78
2022/09/10 04:18:05;;;;;;;8.48;5.07;;;18.40;95.90;;;;;;5013835;28;20455;-78
2022/09/10 04:20:31;;;;;;;9.02;5.00;;;18.40;96.00;;;;;;5021262;28;20016;-78
2022/09/10 04:22:58;;;;;;;9.73;5.40;;;18.40;96.00;;;;;;5038530;28;20321;-78
2022/09/10 04:25:23;;;;;;;7.95;5.07;;;18.40;96.10;;;;;;5035770;28;20102;-77
2022/09/10 04:27:49;;;;;;;9.23;5.57;;;18.40;96.10;;;;;;5014190;28;20078;-77
2022/09/10 04:30:16;;;;;;;9.80;5.72;;;18.40;96.10;;;;;;5004797;28;20025;-78
2022/09/10 04:32:43;;;;;;;9.73;5.63;;;18.40;96.10;;;;;;5038041;28;20044;-77
2022/09/10 04:35:09;;;;;;;8.10;5.45;;;18.40;96.10;;;;;;5049000;28;20311;-78
2022/09/10 04:37:35;;;;;;;10.63;6.13;;;18.40;96.10;;;;;;5032032;28;20092;-77
2022/09/10 04:40:00;;;;;;;9.40;6.07;;;18.40;96.10;;;;;;5033591;28;20043;-78
2022/09/10 04:42:27;;;;;;;8.53;5.67;;;18.40;96.10;;;;;;5047882;28;20032;-78
2022/09/10 04:44:53;;;;;;;10.30;6.30;;;18.40;96.20;;;;;;5008201;28;20802;-78
2022/09/10 04:47:19;;;;;;;9.38;6.32;;;18.40;96.10;;;;;;5039711;28;20301;-78
2022/09/10 04:49:45;;;;;;;10.95;6.80;;;18.40;96.20;;;;;;5046124;28;20115;-78
2022/09/10 04:52:12;;;;;;;10.07;6.23;;;18.40;96.20;;;;;;5031331;28;20441;-77
2022/09/10 04:54:38;;;;;;;9.50;6.20;;;18.40;96.20;;;;;;5030464;28;20094;-78
2022/09/10 04:57:05;;;;;;;9.25;6.18;;;18.50;96.30;;;;;;5038452;28;20020;-78
2022/09/10 04:59:31;;;;;;;9.63;6.28;;;18.50;96.20;;;;;;5034515;28;20051;-78
2022/09/10 05:01:57;;;;;;;9.53;6.17;;;18.50;96.20;;;;;;5032734;28;20025;-77
2022/09/10 05:04:24;;;;;;;10.68;6.72;;;18.50;96.30;;;;;;5004835;28;20125;-77
2022/09/10 05:06:49;;;;;;;9.85;6.15;;;18.50;96.20;;;;;;5029672;28;20472;-78
2022/09/10 05:09:19;;;;;;;10.30;6.50;;;18.50;96.20;;;;;;5016192;28;20233;-77
2022/09/10 05:11:51;;;;;;;10.90;6.57;;;18.50;96.10;;;;;;5040964;28;20036;-78
2022/09/10 05:14:17;;;;;;;11.05;6.53;;;18.50;96.10;;;;;;5017647;28;20807;-78
2022/09/10 05:16:43;;;;;;;10.38;6.30;;;18.50;95.90;;;;;;5014522;28;20031;-78
2022/09/10 05:19:16;;;;;;;9.60;6.17;;;18.50;95.90;;;;;;5037955;28;20408;-77
2022/09/10 05:21:44;;;;;;;11.32;7.00;;;18.50;96.30;;;;;;5033861;28;20024;-77
2022/09/10 05:24:11;;;;;;;11.60;7.10;;;18.40;95.90;;;;;;5012523;28;20321;-78
2022/09/10 05:26:36;;;;;;;9.45;6.45;;;18.40;95.80;;;;;;5034248;28;20330;-77
2022/09/10 05:29:02;;;;;;;10.20;6.80;;;18.40;95.80;;;;;;5045654;28;20033;-77
2022/09/10 05:31:28;;;;;;;12.27;6.88;;;18.40;95.80;;;;;;5021150;28;20048;-78
2022/09/10 05:34:00;;;;;;;11.17;6.23;;;18.40;95.80;;;;;;5010901;28;20116;-78
2022/09/10 05:36:26;;;;;;;10.63;6.85;;;18.40;95.90;;;;;;5020678;28;20025;-78
2022/09/10 05:38:53;;;;;;;11.80;7.10;;;18.30;95.90;;;;;;5037639;28;20021;-78
2022/09/10 05:41:20;;;;;;;10.53;6.47;;;18.30;95.90;;;;;;5047832;28;20423;-78
2022/09/10 05:43:46;;;;;;;10.68;5.78;;;18.30;96.00;;;;;;5036561;28;20064;-78
2022/09/10 05:46:12;;;;;;;10.45;6.82;;;18.30;96.10;;;;;;4999458;28;20459;-77
2022/09/10 05:48:39;;;;;;;9.52;5.85;;;18.30;96.10;;;;;;5025354;28;20020;-78
2022/09/10 05:51:06;;;;;;;10.98;7.00;;;18.30;96.10;;;;;;5040794;28;20864;-78
2022/09/10 05:53:32;;;;;;;10.87;7.40;;;18.30;96.20;;;;;;5014373;28;20033;-78
2022/09/10 05:55:58;;;;;;;11.55;6.95;;;18.30;96.20;;;;;;5039915;28;20042;-77
2022/09/10 05:58:24;;;;;;;11.13;6.30;;;18.30;96.30;;;;;;5025838;28;20091;-78
2022/09/10 06:00:50;;;;;;;9.32;6.00;;;18.30;96.30;;;;;;5046570;28;20098;-77
2022/09/10 06:03:16;;;;;;;11.87;6.33;;;18.30;96.40;;;;;;5013067;28;22256;-79
2022/09/10 06:05:49;;;;;;;12.98;6.75;;;18.30;96.70;;;;;;5019933;28;20032;-80
2022/09/10 06:08:15;;;;;;;10.88;6.40;;;18.30;96.20;;;;;;5015479;28;20024;-80
2022/09/10 06:10:41;;;;;;;10.07;5.72;;;18.30;96.30;;;;;;5044089;28;20035;-80
2022/09/10 06:13:07;;;;;;;11.13;6.40;;;18.30;96.40;;;;;;5004431;28;20028;-80
2022/09/10 06:15:36;;;;;;;9.77;5.82;;;18.30;96.40;;;;;;5021722;28;20045;-80
2022/09/10 06:18:02;;;;;;;11.73;6.22;;;18.30;96.40;;;;;;5029491;28;20024;-80
2022/09/10 06:20:28;;;;;;;9.18;5.85;;;18.20;96.30;;;;;;5037610;28;20039;-81
2022/09/10 06:22:54;;;;;;;8.83;5.90;;;18.20;96.40;;;;;;5012149;28;20017;-80
2022/09/10 06:25:20;;;;;;;11.25;6.13;;;18.20;96.40;;;;;;5039176;28;20316;-80
2022/09/10 06:27:46;;;;;;;9.33;5.80;;;18.20;96.40;;;;;;5017070;28;20209;-80
2022/09/10 06:30:13;;;;;;;9.43;5.80;;;18.20;96.60;;;;;;5019090;28;20331;-81
2022/09/10 06:32:38;;;;;;;10.50;5.60;;;18.10;96.60;;;;;;5041725;28;20021;-80
2022/09/10 06:35:05;;;;;;;11.77;6.30;;;18.20;96.60;;;;;;5013928;28;20016;-80
2022/09/10 06:37:33;;;;;;;10.25;6.15;;;18.10;96.60;;;;;;5036121;28;20091;-80
2022/09/10 06:40:00;;;;;;;10.50;6.57;;;18.10;96.60;;;;;;5029336;28;20025;-80
2022/09/10 06:42:26;;;;;;;11.30;6.50;;;18.10;96.60;;;;;;5019483;28;20185;-80
2022/09/10 06:44:52;;;;;;;9.80;5.78;;;18.10;96.60;;;;;;5017011;28;20032;-80
2022/09/10 06:47:18;;;;;;;10.37;6.03;;;18.10;96.70;;;;;;5033287;28;20028;-80
2022/09/10 06:49:43;;;;;;;8.80;5.63;;;18.10;96.80;;;;;;5005089;28;20021;-80
2022/09/10 06:52:12;;;;;;;9.40;6.05;;;18.10;96.80;;;;;;5028232;28;20712;-81
2022/09/10 06:54:37;;;;;;;11.18;5.60;;;18.10;96.80;;;;;;5033004;28;20029;-80
2022/09/10 06:57:03;;;;;;;8.80;4.87;;;18.10;96.80;;;;;;5023686;28;20553;-80
2022/09/10 06:59:30;;;;;;;8.25;5.03;;;18.10;96.90;;;;;;5017367;28;20029;-80
2022/09/10 07:01:56;;;;;;;8.48;5.00;;;18.10;96.90;;;;;;5011178;28;20443;-80
2022/09/10 07:04:21;;;;;;;9.83;5.63;;;18.00;96.90;;;;;;5015006;28;20758;-80
2022/09/10 07:06:47;;;;;;;10.38;6.03;;;18.00;96.90;;;;;;5026011;28;20035;-81
2022/09/10 07:09:13;;;;;;;11.53;5.70;;;18.00;96.90;;;;;;5035163;28;20028;-80
2022/09/10 07:11:39;;;;;;;10.15;5.72;;;18.00;97.00;;;;;;5033340;28;20078;-81
2022/09/10 07:14:04;;;;;;;10.47;6.00;;;18.00;97.00;;;;;;5019366;28;20024;-80
2022/09/10 07:16:30;;;;;;;10.07;5.32;;;18.00;97.00;;;;;;5036130;28;20021;-80
2022/09/10 07:18:58;;;;;;;8.33;4.80;;;18.00;97.00;;;;;;5016843;28;20033;-80
2022/09/10 07:21:26;;;;;;;7.83;4.90;;;18.00;97.10;;;;;;5010562;28;20674;-81
2022/09/10 07:24:01;;;;;;;7.97;4.85;;;18.00;97.10;;;;;;5039323;28;20021;-81
2022/09/10 07:26:27;;;;;;;7.53;4.97;;;18.00;97.10;;;;;;5031306;28;20028;-81
2022/09/10 07:28:54;;;;;;;10.05;5.60;;;18.00;97.20;;;;;;5005343;28;20025;-82
2022/09/10 07:31:26;;;;;;;8.07;4.90;;;17.90;97.30;;;;;;5037860;28;20033;-81
2022/09/10 07:33:51;;;;;;;8.47;4.93;;;18.00;97.30;;;;;;5024742;28;20029;-80
2022/09/10 10:48:29;;;;;;;11.98;7.57;;;16.50;99.90;;;;;;5079033;27;20946;-80
2022/09/10 10:51:02;;;;;;;10.20;6.65;;;18.10;99.90;;;;;;5051483;28;20031;-80
2022/09/10 10:53:32;;;;;;;8.93;6.15;;;18.30;99.90;;;;;;5077950;28;20468;-81
2022/09/10 10:56:18;;;;;;;11.38;5.90;;;18.50;99.90;;;;;;5110210;27;20028;-81
2022/09/10 10:59:43;;;;;;;8.67;5.27;;;18.60;99.90;;;;;;5043811;28;20613;-80
2022/09/10 11:02:48;;;;;;;8.07;4.80;;;18.80;99.90;;;;;;5042998;28;20044;-80
2022/09/10 11:05:37;;;;;;;9.32;4.75;;;18.90;99.90;;;;;;5042412;28;20487;-80
2022/09/10 11:08:19;;;;;;;8.95;4.38;;;19.00;99.90;;;;;;5005369;28;20037;-79
2022/09/10 11:10:56;;;;;;;8.68;4.57;;;19.00;99.90;;;;;;5042095;28;20595;-80
2022/09/10 11:13:26;;;;;;;6.83;4.37;;;19.10;99.90;;;;;;4999270;28;20101;-80
2022/09/10 11:16:23;;;;;;;7.57;4.63;;;19.10;99.90;;;;;;5022391;28;20040;-80
2022/09/10 11:19:07;;;;;;;7.28;3.92;;;19.20;99.90;;;;;;5006022;28;20140;-80
2022/09/10 11:22:00;;;;;;;7.20;4.78;;;19.20;99.90;;;;;;5036870;28;20122;-80
2022/09/10 11:24:33;;;;;;;7.43;4.22;;;19.20;99.90;;;;;;5015249;28;20949;-79
2022/09/10 11:27:04;;;;;;;6.70;4.30;;;19.30;99.90;;;;;;5036029;28;20036;-80
2022/09/10 11:29:44;;;;;;;7.75;4.32;;;19.30;99.90;;;;;;5019092;28;20489;-80
2022/09/10 11:32:38;;;;;;;7.97;4.20;;;19.30;99.90;;;;;;5026477;28;20518;-80
2022/09/10 11:35:12;;;;;;;5.43;3.83;;;19.40;99.90;;;;;;5075002;28;20029;-80
2022/09/10 11:37:49;;;;;;;6.25;3.80;;;19.40;99.90;;;;;;5056029;28;20128;-80
2022/09/10 11:40:32;;;;;;;5.00;3.27;;;19.40;99.90;;;;;;5046749;28;20122;-80
2022/09/10 11:43:06;;;;;;;4.40;3.17;;;19.40;99.90;;;;;;5091764;27;20027;-80
2022/09/10 11:45:43;;;;;;;5.38;3.35;;;19.50;99.90;;;;;;5059697;28;20502;-81
2022/09/10 11:48:29;;;;;;;5.88;3.15;;;19.50;99.90;;;;;;5053671;28;20043;-81
2022/09/10 11:51:04;;;;;;;4.90;2.80;;;19.50;99.90;;;;;;5062815;28;20024;-81
2022/09/10 11:53:30;;;;;;;5.57;2.87;;;19.50;99.90;;;;;;5029441;28;20255;-81
2022/09/10 11:56:18;;;;;;;6.15;3.00;;;19.50;99.90;;;;;;5044893;28;20480;-81
2022/09/10 11:59:14;;;;;;;6.95;3.15;;;19.50;99.90;;;;;;5060788;28;20028;-82
2022/09/10 12:02:05;;;;;;;6.00;3.10;;;19.50;99.90;;;;;;5066383;28;20064;-81
2022/09/10 12:04:59;;;;;;;5.53;3.03;;;19.50;99.90;;;;;;5040886;28;20071;-80
2022/09/10 12:07:43;;;;;;;4.25;2.88;;;19.50;99.90;;;;;;5052409;28;20548;-80
2022/09/10 12:10:22;;;;;;;5.05;2.80;;;19.50;99.90;;;;;;5050264;28;20040;-80
2022/09/10 12:12:49;;;;;;;4.43;2.88;;;19.50;99.90;;;;;;5070470;28;20025;-80
2022/09/10 12:15:35;;;;;;;6.00;2.90;;;19.60;99.90;;;;;;5030814;28;20059;-79
2022/09/10 12:18:13;;;;;;;5.57;3.30;;;19.60;99.90;;;;;;5063631;28;20028;-79
2022/09/10 12:20:50;;;;;;;5.03;2.97;;;19.60;99.90;;;;;;5059912;28;20497;-78
2022/09/10 12:23:21;;;;;;;5.75;3.05;;;19.60;99.90;;;;;;5024531;28;20597;-79
2022/09/10 12:25:56;;;;;;;5.05;2.90;;;19.60;99.90;;;;;;5064762;28;20017;-79
2022/09/10 12:28:51;;;;;;;7.10;3.20;;;19.70;99.90;;;;;;5036523;28;20031;-80
2022/09/10 12:31:19;;;;;;;6.20;3.20;;;19.70;99.90;;;;;;5059742;28;20200;-79
2022/09/10 12:33:45;;;;;;;6.95;3.30;;;19.70;99.90;;;;;;5083192;28;20028;-80
2022/09/10 12:36:25;;;;;;;5.67;3.00;;;19.70;99.90;;;;;;5035076;28;20255;-79
2022/09/10 12:38:57;;;;;;;5.72;3.22;;;19.70;99.90;;;;;;5071276;28;20046;-79
2022/09/10 12:41:23;;;;;;;4.90;3.25;;;19.70;99.90;;;;;;5056744;28;20219;-79
2022/09/10 12:43:48;;;;;;;5.50;3.20;;;19.70;99.90;;;;;;5058259;28;20110;-79
2022/09/10 12:46:15;;;;;;;5.10;3.13;;;19.70;99.90;;;;;;5051447;28;20064;-81
2022/09/10 12:48:46;;;;;;;6.63;3.47;;;19.70;99.90;;;;;;5072846;28;20063;-80
2022/09/10 12:51:15;;;;;;;4.70;3.27;;;19.70;99.90;;;;;;5064387;28;20019;-80
2022/09/10 12:54:03;;;;;;;5.45;3.50;;;19.70;99.90;;;;;;5041217;28;21084;-81
2022/09/10 12:56:47;;;;;;;5.30;3.33;;;19.70;99.90;;;;;;5053227;28;20036;-79
2022/09/10 12:59:47;;;;;;;5.85;3.25;;;19.70;99.90;;;;;;5057475;28;20036;-78
2022/09/10 13:02:21;;;;;;;4.78;3.13;;;19.70;99.90;;;;;;5052068;28;20119;-79
2022/09/10 13:04:56;;;;;;;4.23;2.60;;;19.80;99.90;;;;;;5043011;28;20140;-79
2022/09/10 13:07:40;;;;;;;2.58;2.13;;;19.70;99.90;;;;;;5059583;28;20381;-79
2022/09/10 13:10:16;;;;;;;4.40;2.38;;;19.70;99.90;;;;;;5040384;28;20351;-79
2022/09/10 13:12:43;;;;;;;4.50;2.45;;;19.70;99.90;;;;;;5050800;28;20062;-79
2022/09/10 13:15:34;;;;;;;4.32;2.20;;;19.70;99.90;;;;;;5060657;28;20027;-79
2022/09/10 13:18:00;;;;;;;3.90;2.20;;;19.70;99.90;;;;;;5054458;28;20024;-79
2022/09/10 13:20:25;;;;;;;3.05;2.35;;;19.70;99.90;;;;;;5055795;28;20024;-78
2022/09/10 13:22:55;;;;;;;3.07;2.10;;;19.70;99.90;;;;;;5050350;28;20627;-79
2022/09/10 13:25:25;;;;;;;4.28;2.70;;;19.70;99.90;;;;;;5044965;28;20024;-78
2022/09/10 13:27:51;;;;;;;3.42;2.40;;;19.70;99.90;;;;;;5045211;28;20488;-78
2022/09/10 13:30:18;;;;;;;3.57;2.57;;;19.80;99.90;;;;;;5069182;28;20028;-78
2022/09/10 13:32:59;;;;;;;5.53;2.87;;;19.90;99.90;;;;;;5044716;28;20281;-78
2022/09/10 13:35:48;;;;;;;4.20;2.78;;;19.90;99.90;;;;;;5079180;28;20157;-78
2022/09/10 13:38:26;;;;;;;4.25;2.60;;;20.00;99.90;;;;;;5066314;28;20106;-78
2022/09/10 13:41:01;;;;;;;4.15;2.97;;;20.20;99.90;;;;;;5057266;28;20100;-79
2022/09/10 13:43:51;;;;;;;3.97;2.70;;;20.20;99.90;;;;;;5046357;28;20107;-78
2022/09/10 13:46:45;;;;;;;5.07;2.73;;;20.30;99.90;;;;;;5070269;27;20510;-77
2022/09/10 13:49:38;;;;;;;4.25;2.80;;;20.50;99.90;;;;;;5068665;28;20099;-79
2022/09/10 13:52:10;;;;;;;4.25;2.70;;;20.50;99.90;;;;;;5062517;28;20203;-79
2022/09/10 13:54:40;;;;;;;5.18;3.10;;;20.60;99.90;;;;;;5062763;28;20021;-77
2022/09/10 13:57:22;;;;;;;4.53;2.80;;;20.70;99.90;;;;;;5058364;27;20452;-78
2022/09/10 13:59:50;;;;;;;6.40;3.00;;;20.70;99.90;;;;;;5057873;28;20031;-79
2022/09/10 14:02:18;;;;;;;4.85;3.00;;;20.80;99.90;;;;;;5039527;28;20078;-77
2022/09/10 14:04:45;;;;;;;6.30;3.20;;;20.80;99.90;;;;;;5058474;28;20101;-77
2022/09/10 14:07:13;;;;;;;4.65;2.63;;;20.90;99.90;;;;;;5059917;28;20614;-79
2022/09/10 14:09:45;;;;;;;4.90;3.03;;;21.00;99.90;;;;;;5047027;28;20086;-79
2022/09/10 14:12:12;;;;;;;4.40;3.10;;;21.00;99.90;;;;;;5050449;28;20218;-78
2022/09/10 14:14:42;;;;;;;5.32;3.00;;;21.10;99.90;;;;;;5074316;28;20035;-79
2022/09/10 14:17:24;;;;;;;5.88;2.97;;;21.10;99.90;;;;;;5038840;28;20618;-77
2022/09/10 14:20:01;;;;;;;4.68;2.67;;;21.20;99.90;;;;;;5046683;28;20020;-79
2022/09/10 14:22:28;;;;;;;5.30;2.78;;;21.20;99.90;;;;;;5068078;28;20028;-78
2022/09/10 14:24:56;;;;;;;4.07;2.77;;;21.30;99.90;;;;;;5052099;28;20391;-78
2022/09/10 14:27:36;;;;;;;4.90;2.72;;;21.30;99.90;;;;;;5028053;28;20101;-78
2022/09/10 14:30:17;;;;;;;4.15;3.05;;;21.50;99.90;;;;;;5071668;28;20392;-78
2022/09/10 14:32:45;;;;;;;4.80;2.80;;;21.50;99.90;;;;;;5046810;28;20024;-78
2022/09/10 14:35:44;;;;;;;3.95;2.88;;;21.60;99.90;;;;;;5035136;28;20020;-77
2022/09/10 14:38:35;;;;;;;3.90;2.60;;;21.70;99.90;;;;;;5058987;28;20013;-78
2022/09/10 14:41:04;;;;;;;4.28;2.60;;;21.80;99.90;;;;;;5063974;28;20032;-79
2022/09/10 14:43:36;;;;;;;4.32;2.50;;;21.80;99.90;;;;;;5032499;28;20036;-77
2022/09/10 14:46:06;;;;;;;4.35;2.42;;;21.90;99.90;;;;;;5032805;28;20141;-78
2022/09/10 14:49:06;;;;;;;4.70;2.65;;;22.00;99.90;;;;;;5028033;28;20024;-78
2022/09/10 14:51:32;;;;;;;3.93;2.27;;;22.10;99.90;;;;;;5060696;28;20301;-79
2022/09/10 14:53:58;;;;;;;3.17;2.50;;;22.20;99.90;;;;;;5069541;28;20020;-78
2022/09/10 14:56:43;;;;;;;4.77;2.43;;;22.20;99.90;;;;;;5057314;28;20253;-79
2022/09/10 14:59:30;;;;;;;3.70;2.40;;;22.20;99.90;;;;;;5056982;28;20039;-78
2022/09/10 15:01:58;;;;;;;3.88;2.72;;;22.30;99.90;;;;;;5061399;28;20160;-79
2022/09/10 15:04:25;;;;;;;3.92;2.58;;;22.30;99.90;;;;;;5042619;28;20597;-78
2022/09/10 15:06:52;;;;;;;4.72;2.38;;;22.30;99.90;;;;;;5072223;28;20527;-79
2022/09/10 15:09:18;;;;;;;3.67;2.60;;;22.30;99.90;;;;;;5068151;28;20020;-78
2022/09/10 15:11:54;;;;;;;3.75;2.42;;;22.30;99.90;;;;;;5039764;28;20396;-78
2022/09/10 15:14:21;;;;;;;2.90;2.22;;;22.30;99.90;;;;;;5044185;28;20342;-78
2022/09/10 15:16:51;;;;;;;3.97;2.25;;;22.30;99.90;;;;;;5047644;28;20024;-79
2022/09/10 15:19:21;;;;;;;3.63;2.30;;;22.30;99.90;;;;;;5037871;28;20530;-79
2022/09/10 15:21:48;;;;;;;2.90;2.00;;;22.30;99.90;;;;;;5065985;28;20502;-78
2022/09/10 15:24:16;;;;;;;5.15;2.10;;;22.30;99.90;;;;;;5072695;28;20082;-79
2022/09/10 15:26:43;;;;;;;2.75;2.00;;;22.20;99.90;;;;;;5062323;28;20097;-79
2022/09/10 15:29:09;;;;;;;2.70;1.95;;;22.30;99.90;;;;;;5051512;28;20108;-78
2022/09/10 15:31:36;;;;;;;3.33;1.90;;;22.30;99.90;;;;;;5070110;28;20043;-78
2022/09/10 15:34:03;;;;;;;3.63;2.10;;;22.40;99.90;;;;;;5055006;28;20016;-78
2022/09/10 15:36:29;;;;;;;3.10;1.85;;;22.40;99.90;;;;;;5066794;28;20228;-78
2022/09/10 15:38:55;;;;;;;2.85;1.88;;;22.50;99.90;;;;;;5064498;28;20285;-78
2022/09/10 15:41:21;;;;;;;3.73;2.10;;;22.50;99.90;;;;;;5070878;28;20323;-79
2022/09/10 15:43:47;;;;;;;3.78;1.90;;;22.50;99.90;;;;;;5050382;28;20032;-79
2022/09/10 15:46:15;;;;;;;3.83;2.00;;;22.60;99.90;;;;;;5036965;28;20036;-78
2022/09/10 15:48:42;;;;;;;3.15;2.00;;;22.60;99.90;;;;;;5059405;28;20023;-78
2022/09/10 15:51:15;;;;;;;5.65;2.20;;;22.60;99.90;;;;;;5078034;28;20085;-78
2022/09/10 15:53:42;;;;;;;3.73;2.17;;;22.60;99.90;;;;;;5050689;28;20032;-78
2022/09/10 15:56:10;;;;;;;3.58;2.00;;;22.50;99.90;;;;;;5048901;28;20059;-78
2022/09/10 15:58:36;;;;;;;3.20;2.05;;;22.50;99.90;;;;;;5061724;28;20514;-78
2022/09/10 16:01:03;;;;;;;2.45;2.08;;;22.50;99.90;;;;;;5045991;28;20047;-78
2022/09/10 16:03:29;;;;;;;2.30;1.90;;;22.50;99.90;;;;;;5053040;28;20040;-78
2022/09/10 16:06:04;;;;;;;4.60;1.73;;;22.60;99.90;;;;;;5043913;28;20049;-78
2022/09/10 16:08:30;;;;;;;3.42;1.80;;;22.60;99.90;;;;;;5064490;28;20534;-78
2022/09/10 16:10:56;;;;;;;3.35;1.75;;;22.60;99.90;;;;;;5039178;28;20423;-77
2022/09/10 16:13:22;;;;;;;2.40;1.80;;;22.60;99.90;;;;;;5082890;28;20035;-78
2022/09/10 16:15:59;;;;;;;2.20;1.40;;;22.60;99.90;;;;;;5073843;28;20029;-78
2022/09/10 16:18:26;;;;;;;3.00;1.70;;;22.60;99.90;;;;;;5075957;28;20097;-78